Time;durP1;ratioP1;P1;durP2;ratioP2;P2;SDS_P1;SDS_P2;PMS_P1;PMS_P2;Temp;Humidity;BMP_temperature;BMP_pressure;BME280_temperature;BME280_humidity;BME280_pressure;Samples;Min_cycle;Max_cycle;Signal;HPM_P1;HPM_P2
2021/07/30 00:01:02;;;;;;;4.17;2.50;;;;;;;15.84;62.48;100575.87;1761167;81;22422;-84
2021/07/30 00:03:29;;;;;;;5.45;2.58;;;;;;;15.81;62.51;100574.11;1761074;81;21022;-84
2021/07/30 00:05:56;;;;;;;6.75;2.77;;;;;;;15.78;62.53;100575.43;1761146;81;21066;-86
2021/07/30 00:08:23;;;;;;;3.77;2.62;;;;;;;15.74;62.52;100574.98;1761104;81;21602;-87
2021/07/30 00:10:54;;;;;;;7.50;3.00;;;;;;;15.70;62.58;100568.76;1761221;80;20996;-85
2021/07/30 00:13:21;;;;;;;6.58;2.77;;;;;;;15.66;62.58;100565.66;1761152;81;22581;-86
2021/07/30 00:15:48;;;;;;;6.92;2.90;;;;;;;15.63;62.64;100569.63;1760898;81;21061;-86
2021/07/30 00:18:15;;;;;;;6.58;3.10;;;;;;;15.57;62.70;100569.63;1760776;81;21081;-86
2021/07/30 00:20:42;;;;;;;6.33;2.40;;;;;;;15.53;62.78;100564.75;1761069;81;21014;-86
2021/07/30 00:23:08;;;;;;;4.47;2.70;;;;;;;15.51;62.85;100566.97;1760921;79;21065;-86
2021/07/30 00:25:35;;;;;;;7.25;2.67;;;;;;;15.49;62.88;100565.64;1760626;81;22638;-86
2021/07/30 00:28:02;;;;;;;8.35;2.85;;;;;;;15.46;62.85;100565.63;1760630;81;21065;-86
2021/07/30 00:30:29;;;;;;;7.05;2.58;;;;;;;15.44;62.94;100566.06;1760572;81;21077;-85
2021/07/30 00:32:55;;;;;;;6.75;3.20;;;;;;;15.42;62.94;100561.20;1760622;81;21101;-85
2021/07/30 00:35:22;;;;;;;4.37;2.47;;;;;;;15.40;62.97;100566.06;1760877;81;21539;-85
2021/07/30 00:37:49;;;;;;;3.72;2.33;;;;;;;15.38;63.04;100566.05;1760734;79;21762;-86
2021/07/30 00:40:15;;;;;;;3.62;2.40;;;;;;;15.35;63.14;100568.27;1760635;79;21010;-86
2021/07/30 00:42:52;;;;;;;11.00;3.25;;;;;;;15.32;63.14;100558.09;1760711;80;21575;-86
2021/07/30 00:45:19;;;;;;;10.20;2.47;;;;;;;15.30;63.15;100555.88;1733625;82;22660;-86
2021/07/30 00:47:48;;;;;;;6.65;2.47;;;;;;;15.27;63.20;100552.77;1733814;81;21635;-86
2021/07/30 00:50:14;;;;;;;5.33;2.65;;;;;;;15.25;63.30;100554.98;1734513;82;21825;-86
2021/07/30 00:52:41;;;;;;;8.00;2.15;;;;;;;15.24;63.33;100558.08;1734287;82;21004;-86
2021/07/30 00:55:09;;;;;;;6.17;2.67;;;;;;;15.23;63.32;100551.44;1734422;82;21579;-86
2021/07/30 00:57:36;;;;;;;5.28;2.58;;;;;;;15.22;63.35;100550.98;1734467;82;21569;-86
2021/07/30 01:00:05;;;;;;;6.50;2.22;;;;;;;15.21;63.36;100555.41;1734178;81;21057;-86
2021/07/30 01:02:32;;;;;;;3.90;2.30;;;;;;;15.20;63.32;100553.62;1734465;82;22587;-86
2021/07/30 01:04:59;;;;;;;7.17;2.85;;;;;;;15.16;63.30;100550.10;1734401;82;21011;-86
2021/07/30 01:07:26;;;;;;;8.15;2.20;;;;;;;15.16;63.33;100555.41;1734643;82;21024;-87
2021/07/30 01:09:53;;;;;;;3.60;1.82;;;;;;;15.15;63.40;100554.07;1734505;82;21102;-87
2021/07/30 01:12:19;;;;;;;8.55;2.40;;;;;;;15.13;63.37;100555.38;1734417;82;21015;-87
2021/07/30 01:14:46;;;;;;;5.30;2.30;;;;;;;15.13;63.42;100548.76;1690146;82;22429;-86
2021/07/30 01:17:13;;;;;;;4.67;2.20;;;;;;;15.14;63.35;100557.59;1734589;82;21473;-87
2021/07/30 01:19:39;;;;;;;5.33;2.70;;;;;;;15.11;63.35;100544.34;1734611;82;21071;-86
2021/07/30 01:22:30;;;;;;;4.35;2.15;;;;;;;15.10;63.37;100542.56;1734659;82;21264;-87
2021/07/30 01:24:56;;;;;;;4.85;2.30;;;;;;;15.08;63.32;100539.89;1734798;82;20999;-86
2021/07/30 01:27:23;;;;;;;3.75;2.10;;;;;;;15.07;63.36;100546.09;1734781;82;22520;-86
2021/07/30 01:29:51;;;;;;;5.28;2.30;;;;;;;15.08;63.32;100546.97;1734678;82;21039;-86
2021/07/30 01:32:19;;;;;;;4.22;2.40;;;;;;;15.06;63.30;100547.41;1734777;82;20992;-85
2021/07/30 01:34:47;;;;;;;6.00;2.62;;;;;;;15.05;63.31;100549.16;1734795;82;21036;-86
2021/07/30 01:37:14;;;;;;;3.65;2.37;;;;;;;15.03;63.32;100549.59;1734525;82;21004;-86
2021/07/30 01:39:40;;;;;;;4.00;2.15;;;;;;;15.01;63.33;100547.38;1734655;82;22568;-86
2021/07/30 01:42:07;;;;;;;7.62;2.20;;;;;;;15.01;63.32;100548.70;1734623;82;20996;-86
2021/07/30 01:44:34;;;;;;;5.78;2.50;;;;;;;14.97;63.32;100536.33;1734742;82;21034;-85
2021/07/30 01:47:01;;;;;;;3.95;1.77;;;;;;;14.97;63.28;100541.63;1734430;82;21500;-86
2021/07/30 01:49:27;;;;;;;4.45;2.08;;;;;;;14.94;63.30;100537.21;1734524;82;21627;-86
2021/07/30 01:51:54;;;;;;;4.80;2.15;;;;;;;14.91;63.28;100537.19;1734696;81;21675;-86
2021/07/30 01:54:22;;;;;;;3.67;2.00;;;;;;;14.90;63.34;100529.22;1713495;82;38680;-86
2021/07/30 01:56:48;;;;;;;5.08;2.15;;;;;;;14.88;63.31;100536.29;1734669;82;21063;-86
2021/07/30 01:59:15;;;;;;;5.25;2.55;;;;;;;14.87;63.30;100534.53;1734312;82;21059;-87
2021/07/30 02:01:43;;;;;;;4.90;2.20;;;;;;;14.85;63.29;100541.15;1734787;82;21064;-87
2021/07/30 02:04:09;;;;;;;6.47;2.12;;;;;;;14.85;63.31;100541.59;1734693;82;21704;-86
2021/07/30 02:06:36;;;;;;;9.38;2.30;;;;;;;14.83;63.34;100540.67;1734583;81;21024;-87
2021/07/30 02:09:03;;;;;;;4.53;2.30;;;;;;;14.83;63.35;100545.98;1734638;82;21059;-86
2021/07/30 02:11:29;;;;;;;5.65;2.02;;;;;;;14.82;63.33;100546.42;1734682;82;21071;-86
2021/07/30 02:14:17;;;;;;;6.78;2.35;;;;;;;14.81;63.35;100544.67;1734644;82;21533;-86
2021/07/30 02:16:46;;;;;;;11.63;2.55;;;;;;;14.81;63.29;100545.09;1734637;82;22037;-87
2021/07/30 02:19:13;;;;;;;7.67;2.10;;;;;;;14.76;63.24;100552.58;1734508;82;20995;-86
2021/07/30 02:21:40;;;;;;;9.83;2.12;;;;;;;14.73;63.25;100547.29;1734619;82;21027;-86
2021/07/30 02:24:07;;;;;;;6.12;2.37;;;;;;;14.69;63.26;100544.60;1734499;82;21016;-86
2021/07/30 02:26:33;;;;;;;6.45;2.35;;;;;;;14.66;63.29;100543.25;1734471;82;21004;-86
2021/07/30 02:29:00;;;;;;;6.15;2.30;;;;;;;14.63;63.34;100537.95;1734553;82;21734;-86
2021/07/30 02:31:27;;;;;;;4.22;2.47;;;;;;;14.60;63.39;100538.80;1734482;82;21050;-86
2021/07/30 02:33:53;;;;;;;7.05;2.67;;;;;;;14.58;63.39;100540.15;1734506;82;21341;-86
2021/07/30 02:36:20;;;;;;;4.37;2.30;;;;;;;14.55;63.44;100536.11;1734662;82;21087;-86
2021/07/30 02:38:47;;;;;;;8.25;3.20;;;;;;;14.55;63.46;100536.56;1734612;82;21091;-85
2021/07/30 02:41:16;;;;;;;5.35;2.27;;;;;;;14.52;63.49;100532.11;1734640;81;21679;-85
2021/07/30 02:43:43;;;;;;;4.58;2.17;;;;;;;14.50;63.51;100532.99;1734738;82;21594;-86
2021/07/30 02:46:10;;;;;;;8.18;2.55;;;;;;;14.47;63.61;100532.55;1734504;82;21075;-86
2021/07/30 02:48:37;;;;;;;4.47;2.98;;;;;;;14.43;63.62;100528.09;1734614;82;21292;-86
2021/07/30 02:51:03;;;;;;;7.85;2.55;;;;;;;14.41;63.66;100528.97;1734682;82;21023;-86
2021/07/30 02:53:30;;;;;;;8.40;2.70;;;;;;;14.38;63.75;100532.05;1734598;82;21773;-86
2021/07/30 02:55:57;;;;;;;5.17;2.47;;;;;;;14.36;63.77;100531.16;1734421;82;21007;-86
2021/07/30 02:58:23;;;;;;;3.55;2.72;;;;;;;14.34;63.81;100531.59;1734571;82;20999;-86
2021/07/30 03:00:51;;;;;;;3.52;2.12;;;;;;;14.33;63.80;100529.80;1734363;82;21560;-86
2021/07/30 03:03:18;;;;;;;9.28;2.67;;;;;;;14.33;63.92;100532.45;1734630;82;21008;-86
2021/07/30 03:05:47;;;;;;;6.80;3.40;;;;;;;14.35;63.91;100535.98;1734634;82;21764;-86
2021/07/30 03:08:14;;;;;;;6.83;2.75;;;;;;;14.37;63.92;100529.39;1734365;81;21161;-85
2021/07/30 03:10:40;;;;;;;7.47;2.80;;;;;;;14.40;63.91;100525.44;1758599;81;21009;-86
2021/07/30 03:13:09;;;;;;;5.65;2.30;;;;;;;14.44;63.91;100526.34;1765744;80;21031;-85
2021/07/30 03:15:36;;;;;;;7.10;2.60;;;;;;;14.46;63.91;100527.24;1768311;80;21066;-86
2021/07/30 03:18:03;;;;;;;7.95;2.62;;;;;;;14.47;63.89;100524.61;1765784;80;21740;-86
2021/07/30 03:20:29;;;;;;;5.70;3.12;;;;;;;14.51;63.92;100527.71;1765649;81;21015;-86
2021/07/30 03:22:56;;;;;;;6.22;2.65;;;;;;;14.55;63.92;100536.56;1765775;80;21051;-86
2021/07/30 03:25:23;;;;;;;7.87;2.45;;;;;;;14.58;63.89;100537.50;1765703;80;21492;-86
2021/07/30 03:27:49;;;;;;;4.75;2.62;;;;;;;14.62;63.91;100533.11;1765815;81;20996;-85
2021/07/30 03:30:16;;;;;;;10.03;2.55;;;;;;;14.70;63.94;100531.81;1765682;81;21731;-86
2021/07/30 03:32:44;;;;;;;5.05;2.37;;;;;;;14.79;63.85;100531.86;1765707;80;21067;-86
2021/07/30 03:35:10;;;;;;;9.05;2.47;;;;;;;14.91;63.87;100535.86;1765844;80;21051;-86
2021/07/30 03:37:37;;;;;;;4.58;2.60;;;;;;;15.06;63.77;100524.87;1765795;80;21079;-85
2021/07/30 03:40:07;;;;;;;6.05;2.20;;;;;;;15.23;63.63;100531.55;1765679;80;21027;-86
2021/07/30 03:42:33;;;;;;;6.42;2.30;;;;;;;15.54;63.87;100535.13;1765708;80;21706;-86
2021/07/30 03:45:00;;;;;;;4.30;2.00;;;;;;;16.39;64.07;100529.83;1765405;81;21028;-86
2021/07/30 03:47:27;;;;;;;5.30;2.02;;;;;;;17.26;63.64;100529.47;1776050;80;20995;-86
2021/07/30 03:49:54;;;;;;;4.33;2.35;;;;;;;18.65;63.54;100521.61;1787218;79;21011;-86
2021/07/30 03:52:20;;;;;;;3.65;1.85;;;;;;;20.19;61.69;100516.23;1785591;80;20995;-87
2021/07/30 03:54:47;;;;;;;4.03;2.25;;;;;;;21.56;59.83;100511.17;1785121;79;21751;-86
2021/07/30 03:57:14;;;;;;;4.65;2.15;;;;;;;22.73;58.01;100516.61;1785215;80;20965;-87
2021/07/30 03:59:40;;;;;;;5.53;2.17;;;;;;;23.81;56.08;100512.86;1785308;80;21024;-86
2021/07/30 04:02:07;;;;;;;3.70;2.17;;;;;;;24.80;54.63;100513.83;1779010;80;21564;-86
2021/07/30 04:04:34;;;;;;;6.33;2.02;;;;;;;25.85;53.20;100514.21;1785358;80;21093;-86
2021/07/30 04:07:01;;;;;;;7.95;1.80;;;;;;;26.84;51.52;100510.77;1785187;80;22564;-85
2021/07/30 04:09:28;;;;;;;4.58;2.17;;;;;;;27.78;49.64;100521.13;1785008;80;20979;-84
2021/07/30 04:11:54;;;;;;;5.97;1.77;;;;;;;28.50;48.18;100518.79;1785109;79;21509;-85
2021/07/30 04:14:21;;;;;;;6.15;2.37;;;;;;;29.18;46.61;100513.79;1785232;80;20955;-89
2021/07/30 04:16:48;;;;;;;9.08;2.72;;;;;;;29.82;45.65;100516.86;1785129;80;21049;-86
2021/07/30 04:19:15;;;;;;;4.65;2.00;;;;;;;30.51;44.03;100516.41;1785113;80;22409;-86
2021/07/30 04:21:41;;;;;;;8.43;2.60;;;;;;;31.06;42.77;100518.36;1698170;83;21523;-86
2021/07/30 04:24:08;;;;;;;7.28;2.30;;;;;;;31.67;41.75;100515.34;1784189;79;21070;-86
2021/07/30 04:26:35;;;;;;;5.35;1.98;;;;;;;32.29;40.28;100516.98;1783875;80;21023;-87
2021/07/30 04:29:01;;;;;;;8.90;2.00;;;;;;;32.78;39.53;100513.17;1784254;79;21046;-86
2021/07/30 04:31:28;;;;;;;5.92;2.25;;;;;;;33.31;38.42;100515.20;1784173;80;21789;-85
2021/07/30 04:33:55;;;;;;;4.53;1.95;;;;;;;33.86;37.49;100515.64;1761637;80;21070;-86
2021/07/30 04:36:22;;;;;;;7.05;1.95;;;;;;;34.46;36.70;100510.53;1789167;80;21035;-86
2021/07/30 04:38:49;;;;;;;4.45;1.95;;;;;;;35.03;35.54;100514.18;1784993;80;21097;-87
2021/07/30 04:41:17;;;;;;;3.65;1.50;;;;;;;35.67;34.54;100508.98;1763474;80;21062;-84
2021/07/30 04:43:46;;;;;;;6.05;1.70;;;;;;;36.02;33.80;100507.34;1785194;79;21891;-86
2021/07/30 04:46:17;;;;;;;5.25;2.20;;;;;;;36.45;32.69;100505.00;1777162;80;20943;-85
2021/07/30 04:48:45;;;;;;;6.42;2.22;;;;;;;36.72;31.91;100509.09;1776193;80;21110;-86
2021/07/30 04:51:18;;;;;;;8.05;2.22;;;;;;;37.15;31.30;100500.63;1776630;80;21200;-89
2021/07/30 04:53:58;;;;;;;7.25;2.22;;;;;;;37.56;30.44;100496.45;1775519;80;21574;-89
2021/07/30 04:56:25;;;;;;;7.12;2.08;;;;;;;38.04;29.69;100494.73;1776623;80;22635;-87
2021/07/30 04:58:52;;;;;;;11.38;2.27;;;;;;;38.58;28.86;100497.87;1776374;80;21014;-86
2021/07/30 05:01:19;;;;;;;11.22;2.58;;;;;;;38.88;28.06;100500.34;1776353;80;21043;-86
2021/07/30 05:03:46;;;;;;;12.03;2.10;;;;;;;39.15;27.60;100495.03;1774386;80;21615;-85
2021/07/30 05:06:15;;;;;;;26.87;3.17;;;;;;;39.49;26.78;100497.16;1785485;80;21034;-86
2021/07/30 05:08:42;;;;;;;10.13;2.15;;;;;;;39.72;26.49;100497.06;1761550;80;21335;-86
2021/07/30 05:11:10;;;;;;;9.35;2.27;;;;;;;40.14;25.72;100494.17;1775779;80;21623;-87
2021/07/30 05:13:40;;;;;;;17.67;3.65;;;;;;;40.20;25.24;100497.14;1758972;80;21028;-86
2021/07/30 05:16:11;;;;;;;18.10;2.42;;;;;;;40.35;24.93;100492.45;1768294;80;21070;-86
2021/07/30 05:18:38;;;;;;;38.65;4.33;;;;;;;40.71;24.48;100489.56;1775990;80;21019;-86
2021/07/30 05:21:06;;;;;;;12.30;2.50;;;;;;;40.99;23.96;100481.95;1776026;79;22565;-86
2021/07/30 05:23:33;;;;;;;7.47;2.10;;;;;;;41.04;23.37;100480.95;1775795;79;20992;-85
2021/07/30 05:26:00;;;;;;;4.45;1.60;;;;;;;41.08;23.06;100479.58;1777044;79;21023;-86
2021/07/30 05:28:28;;;;;;;22.67;2.55;;;;;;;41.14;22.93;100476.14;1776608;80;21180;-86
2021/07/30 05:30:58;;;;;;;3.42;1.42;;;;;;;41.32;22.50;100479.35;1776655;80;21058;-85
2021/07/30 05:33:28;;;;;;;8.20;2.15;;;;;;;41.46;22.40;100473.67;1776629;80;21712;-85
2021/07/30 05:35:55;;;;;;;7.42;2.10;;;;;;;41.70;21.81;100468.20;1776606;79;21105;-88
2021/07/30 05:38:22;;;;;;;10.58;2.20;;;;;;;41.69;21.63;100462.84;1776699;79;20944;-86
2021/07/30 05:40:48;;;;;;;9.05;2.52;;;;;;;41.66;21.50;100470.97;1776747;80;21066;-86
2021/07/30 05:43:15;;;;;;;6.58;2.20;;;;;;;41.67;21.30;100476.86;1776863;80;21073;-86
2021/07/30 05:45:42;;;;;;;10.15;2.10;;;;;;;40.26;20.65;100468.58;1777206;80;21809;-83
2021/07/30 05:48:09;;;;;;;6.15;2.42;;;;;;;37.62;20.92;100465.70;1776426;79;21046;-85
2021/07/30 05:50:35;;;;;;;11.75;2.35;;;;;;;35.05;21.98;100467.56;1776671;80;21042;-84
2021/07/30 05:53:02;;;;;;;16.32;2.50;;;;;;;32.89;23.11;100464.19;1776749;79;21008;-84
2021/07/30 05:55:29;;;;;;;8.60;2.02;;;;;;;31.21;24.54;100471.63;1776752;80;21007;-84
2021/07/30 05:57:59;;;;;;;9.93;2.12;;;;;;;29.87;25.51;100469.12;1776751;80;21711;-84
2021/07/30 06:00:26;;;;;;;9.18;2.60;;;;;;;28.74;26.70;100466.97;1776651;79;21560;-87
2021/07/30 06:02:52;;;;;;;9.18;2.27;;;;;;;27.68;27.69;100472.92;1785577;80;21015;-86
2021/07/30 06:05:19;;;;;;;9.55;2.00;;;;;;;26.75;28.85;100468.89;1785258;80;21221;-86
2021/07/30 06:07:46;;;;;;;12.37;2.22;;;;;;;26.05;29.77;100467.52;1785269;79;21551;-86
2021/07/30 06:10:12;;;;;;;7.12;2.60;;;;;;;25.44;30.64;100469.64;1785230;80;22388;-87
2021/07/30 06:12:39;;;;;;;4.67;1.98;;;;;;;24.80;31.38;100468.55;1784993;80;21034;-86
2021/07/30 06:15:07;;;;;;;3.08;1.42;;;;;;;24.31;32.22;100460.94;1785199;80;21513;-86
2021/07/30 06:17:34;;;;;;;6.78;2.37;;;;;;;23.97;33.08;100463.47;1785224;80;21061;-86
2021/07/30 06:20:00;;;;;;;10.93;2.30;;;;;;;23.66;33.62;100474.77;1785131;80;20991;-87
2021/07/30 06:22:27;;;;;;;8.85;2.20;;;;;;;23.37;34.29;100462.33;1785202;80;21708;-86
2021/07/30 06:24:54;;;;;;;7.85;2.50;;;;;;;23.13;34.72;100456.41;1784882;80;21477;-86
2021/07/30 06:27:21;;;;;;;7.58;2.27;;;;;;;22.91;35.16;100460.58;1785261;80;20999;-86
2021/07/30 06:29:47;;;;;;;8.83;2.15;;;;;;;22.67;35.61;100448.81;1785125;80;21065;-86
2021/07/30 06:32:14;;;;;;;6.03;1.92;;;;;;;22.59;36.15;100448.14;1785264;79;20983;-86
2021/07/30 06:34:41;;;;;;;14.05;2.37;;;;;;;22.38;36.92;100446.09;1785282;80;21874;-86
2021/07/30 06:37:07;;;;;;;6.40;2.70;;;;;;;22.38;36.92;100446.09;1785219;80;21488;-86
2021/07/30 06:39:34;;;;;;;9.73;2.22;;;;;;;22.28;36.97;100446.80;1785211;80;21011;-87
2021/07/30 06:42:01;;;;;;;15.30;2.90;;;;;;;22.22;37.34;100444.27;1785325;80;21062;-87
2021/07/30 06:44:27;;;;;;;14.65;2.60;;;;;;;22.20;37.67;100448.79;1785272;80;20979;-87
2021/07/30 06:46:54;;;;;;;6.55;2.00;;;;;;;22.15;37.74;100440.89;1785519;79;21940;-87
2021/07/30 06:49:21;;;;;;;12.47;2.10;;;;;;;22.09;37.69;100442.38;1785425;80;21004;-86
2021/07/30 06:51:47;;;;;;;12.65;2.98;;;;;;;22.04;37.85;100441.66;1785241;79;21034;-87
2021/07/30 06:54:14;;;;;;;8.20;2.25;;;;;;;22.04;38.30;100453.71;1785158;79;21011;-86
2021/07/30 06:56:45;;;;;;;6.80;2.37;;;;;;;22.06;38.22;100446.50;1776296;80;21034;-86
2021/07/30 06:59:12;;;;;;;7.50;2.05;;;;;;;22.07;38.50;100449.59;1781790;80;21757;-86
2021/07/30 07:01:39;;;;;;;7.20;2.27;;;;;;;22.04;38.35;100441.18;1785175;80;21046;-86
2021/07/30 07:04:06;;;;;;;12.23;2.33;;;;;;;22.03;38.47;100450.13;1785149;80;21563;-86
2021/07/30 07:06:32;;;;;;;9.80;1.95;;;;;;;22.03;38.60;100446.58;1785188;80;21663;-86
2021/07/30 07:08:59;;;;;;;6.22;2.37;;;;;;;22.07;38.77;100444.22;1785193;79;20994;-86
2021/07/30 07:11:26;;;;;;;4.37;2.15;;;;;;;22.13;38.73;100444.08;1785204;80;22579;-87
2021/07/30 07:13:53;;;;;;;9.53;2.30;;;;;;;22.14;38.83;100441.33;1785174;80;21489;-86
2021/07/30 07:16:22;;;;;;;6.05;2.15;;;;;;;22.19;38.98;100441.22;1785307;79;21011;-86
2021/07/30 07:18:49;;;;;;;11.50;2.35;;;;;;;22.23;38.87;100447.37;1785214;79;21555;-87
2021/07/30 07:21:16;;;;;;;8.30;2.90;;;;;;;22.29;38.93;100434.69;1785187;80;21133;-86
2021/07/30 07:23:42;;;;;;;8.35;2.10;;;;;;;22.33;38.81;100435.48;1785166;80;21742;-86
2021/07/30 07:26:09;;;;;;;15.58;2.27;;;;;;;22.39;38.86;100422.36;1781931;80;21003;-87
2021/07/30 07:28:36;;;;;;;7.47;1.98;;;;;;;22.40;38.44;100430.37;1785221;80;21066;-87
2021/07/30 07:31:03;;;;;;;21.68;2.87;;;;;;;22.43;38.42;100434.31;1785232;80;20972;-86
2021/07/30 07:33:29;;;;;;;15.03;3.02;;;;;;;22.47;38.33;100429.75;1785286;80;21035;-86
2021/07/30 07:35:56;;;;;;;12.35;2.35;;;;;;;22.54;38.17;100431.77;1785138;80;21733;-86
2021/07/30 07:38:23;;;;;;;20.43;2.67;;;;;;;22.63;38.33;100434.17;1784988;80;21054;-85
2021/07/30 07:40:50;;;;;;;9.73;1.92;;;;;;;22.73;37.94;100428.06;1785243;79;21042;-86
2021/07/30 07:43:16;;;;;;;11.38;2.77;;;;;;;22.82;37.91;100423.76;1785209;80;21256;-86
2021/07/30 07:45:43;;;;;;;23.25;2.77;;;;;;;22.88;37.71;100417.75;1785077;79;21122;-85
2021/07/30 07:48:10;;;;;;;13.83;2.42;;;;;;;22.90;37.54;100432.00;1784966;80;21753;-85
2021/07/30 07:50:37;;;;;;;27.93;4.08;;;;;;;22.89;37.38;100414.13;1785102;80;21046;-85
2021/07/30 07:53:15;;;;;;;7.95;2.40;;;;;;;22.93;37.33;100419.41;1785020;80;22250;-85
2021/07/30 07:55:41;;;;;;;9.23;2.27;;;;;;;23.00;37.52;100420.98;1762537;80;21469;-84
2021/07/30 07:58:08;;;;;;;17.07;3.22;;;;;;;23.06;37.29;100412.28;1776477;80;20999;-84
2021/07/30 08:00:35;;;;;;;21.62;3.12;;;;;;;23.08;37.21;100406.39;1776659;80;22589;-84
2021/07/30 08:03:02;;;;;;;12.65;2.52;;;;;;;23.20;37.29;100413.64;1776405;80;21136;-84
2021/07/30 08:05:28;;;;;;;10.85;3.10;;;;;;;23.30;37.16;100417.80;1776523;79;21035;-84
2021/07/30 08:07:55;;;;;;;19.17;3.12;;;;;;;23.41;37.04;100420.13;1776501;80;21078;-84
2021/07/30 08:10:22;;;;;;;14.40;2.60;;;;;;;23.46;36.84;100391.28;1776650;80;21003;-84
2021/07/30 08:12:49;;;;;;;27.02;3.67;;;;;;;23.80;36.64;100408.95;1776540;80;21749;-84
2021/07/30 08:15:15;;;;;;;23.42;3.35;;;;;;;24.11;36.35;100401.15;1776408;79;21011;-84
2021/07/30 08:17:42;;;;;;;14.63;3.15;;;;;;;24.11;36.35;100401.15;1777051;79;20991;-84
2021/07/30 08:20:10;;;;;;;24.25;3.62;;;;;;;24.52;35.93;100409.04;1776623;79;21018;-84
2021/07/30 08:22:38;;;;;;;13.13;3.02;;;;;;;24.91;35.77;100417.84;1776134;80;21062;-84
2021/07/30 08:25:06;;;;;;;15.60;2.80;;;;;;;25.20;35.19;100409.91;1776381;80;21825;-84
2021/07/30 08:27:33;;;;;;;11.48;2.60;;;;;;;25.41;35.06;100412.25;1776447;79;21536;-84
2021/07/30 08:29:59;;;;;;;12.13;2.65;;;;;;;25.55;34.90;100406.74;1776474;80;21619;-84
2021/07/30 08:32:26;;;;;;;17.75;3.37;;;;;;;25.50;34.80;100412.31;1776569;79;21054;-84
2021/07/30 08:34:53;;;;;;;6.45;2.60;;;;;;;25.56;34.75;100409.82;1776563;80;21003;-84
2021/07/30 08:37:20;;;;;;;9.95;2.83;;;;;;;25.52;34.66;100407.73;1776629;80;22531;-84
2021/07/30 08:39:46;;;;;;;9.58;2.72;;;;;;;25.59;34.89;100398.92;1776326;79;21504;-84
2021/07/30 08:42:13;;;;;;;22.65;3.30;;;;;;;25.83;34.80;100407.77;1776463;80;20987;-84
2021/07/30 08:44:40;;;;;;;6.62;2.20;;;;;;;26.04;34.52;100406.45;1776558;80;21070;-84
2021/07/30 08:47:07;;;;;;;10.28;2.50;;;;;;;26.16;34.52;100401.34;1776503;80;21015;-84
2021/07/30 08:49:35;;;;;;;7.30;2.62;;;;;;;26.14;34.29;100396.98;1776275;80;21762;-84
2021/07/30 08:52:10;;;;;;;13.78;2.55;;;;;;;26.14;34.36;100397.84;1776342;80;21050;-84
2021/07/30 08:54:38;;;;;;;16.00;2.52;;;;;;;26.19;34.38;100393.13;1776129;79;21292;-84
2021/07/30 08:57:11;;;;;;;13.53;2.22;;;;;;;26.10;33.97;100396.72;1776388;80;21217;-84
2021/07/30 08:59:41;;;;;;;6.92;2.40;;;;;;;25.99;34.25;100394.02;1776233;80;21642;-84
2021/07/30 09:02:08;;;;;;;9.90;2.60;;;;;;;25.94;34.39;100392.02;1776512;79;21692;-84
2021/07/30 09:04:35;;;;;;;35.35;3.60;;;;;;;25.97;34.39;100385.13;1764383;80;21023;-84
2021/07/30 09:07:02;;;;;;;17.95;3.12;;;;;;;25.99;34.19;100378.32;1776414;80;21512;-84
2021/07/30 09:09:32;;;;;;;12.95;2.50;;;;;;;25.98;34.07;100390.94;1723225;83;21049;-84
2021/07/30 09:12:01;;;;;;;9.95;2.40;;;;;;;25.97;34.06;100377.52;1775040;79;21026;-84
2021/07/30 09:14:36;;;;;;;22.13;3.47;;;;;;;25.94;34.14;100379.89;1776454;80;21792;-84
2021/07/30 09:17:03;;;;;;;24.30;3.25;;;;;;;26.02;33.94;100376.84;1776410;80;21090;-83
2021/07/30 09:19:30;;;;;;;19.07;3.02;;;;;;;25.99;34.17;100374.27;1776409;80;20992;-84
2021/07/30 09:22:10;;;;;;;15.65;3.40;;;;;;;26.08;34.34;100375.20;1776519;80;21014;-84
2021/07/30 09:24:42;;;;;;;12.82;2.80;;;;;;;26.08;34.01;100374.34;1776220;80;21059;-84
2021/07/30 09:27:11;;;;;;;7.10;2.50;;;;;;;25.89;33.77;100364.83;1777139;80;21789;-83
2021/07/30 09:29:39;;;;;;;13.60;2.40;;;;;;;25.73;33.56;100361.47;1776162;80;21015;-84
2021/07/30 09:32:12;;;;;;;9.33;3.45;;;;;;;25.48;33.70;100368.38;1776431;80;21043;-84
2021/07/30 09:34:43;;;;;;;11.60;2.62;;;;;;;25.36;34.03;100375.66;1776145;80;21182;-84
2021/07/30 09:37:16;;;;;;;10.70;2.40;;;;;;;25.28;34.22;100371.91;1776366;79;21011;-84
2021/07/30 09:39:45;;;;;;;16.40;3.33;;;;;;;25.27;34.20;100367.97;1776717;80;21780;-84
2021/07/30 09:42:22;;;;;;;7.75;2.35;;;;;;;25.20;34.30;100356.52;1776158;79;21599;-85
2021/07/30 09:44:55;;;;;;;22.30;2.95;;;;;;;25.16;34.55;100357.12;1776144;79;21082;-84
2021/07/30 09:47:29;;;;;;;24.17;4.53;;;;;;;25.15;34.41;100382.32;1764590;80;21007;-84
2021/07/30 09:49:59;;;;;;;9.03;2.35;;;;;;;25.27;34.28;100361.23;1776027;80;21038;-84
2021/07/30 09:52:28;;;;;;;18.55;3.08;;;;;;;25.37;34.40;100365.27;1776193;80;21800;-84
2021/07/30 09:55:03;;;;;;;16.27;2.55;;;;;;;25.37;34.09;100362.58;1776170;80;21016;-84
2021/07/30 09:57:42;;;;;;;8.28;2.80;;;;;;;25.33;34.19;100359.14;1776277;79;21039;-84
2021/07/30 10:00:15;;;;;;;10.35;2.87;;;;;;;25.47;34.15;100351.83;1775619;80;21121;-84
2021/07/30 10:02:44;;;;;;;11.73;2.52;;;;;;;25.49;34.24;100351.73;1776410;79;21058;-84
2021/07/30 10:05:13;;;;;;;6.42;2.30;;;;;;;25.42;34.24;100356.53;1776557;80;21818;-84
2021/07/30 10:07:45;;;;;;;14.07;3.33;;;;;;;25.41;34.24;100351.63;1744807;80;21073;-84
2021/07/30 10:12:52;;;;;;;12.85;2.35;;;;;;;25.47;34.23;100355.87;1776654;80;21051;-84
2021/07/30 10:15:18;;;;;;;12.07;2.62;;;;;;;25.44;34.33;100357.34;1772544;79;21077;-83
2021/07/30 10:17:53;;;;;;;14.63;2.77;;;;;;;25.45;34.16;100349.64;1784906;80;21800;-83
2021/07/30 10:20:21;;;;;;;9.75;2.80;;;;;;;25.38;34.12;100335.58;1785214;80;21046;-83
2021/07/30 10:23:09;;;;;;;14.10;2.67;;;;;;;25.30;34.20;100340.43;1785233;80;21018;-83
2021/07/30 10:25:44;;;;;;;15.78;2.95;;;;;;;25.22;34.26;100342.04;1761121;80;21190;-84
2021/07/30 10:28:23;;;;;;;11.90;2.85;;;;;;;25.24;34.45;100343.84;1769881;79;21011;-83
2021/07/30 10:31:02;;;;;;;8.90;2.50;;;;;;;25.27;34.44;100342.37;1776301;80;22660;-83
2021/07/30 10:33:37;;;;;;;7.87;2.25;;;;;;;25.37;34.73;100334.29;1776670;80;21512;-83
2021/07/30 10:36:12;;;;;;;10.88;2.60;;;;;;;25.52;34.67;100328.70;1776744;79;21027;-84
2021/07/30 10:38:40;;;;;;;25.92;2.90;;;;;;;25.67;34.25;100334.77;1776513;79;21042;-84
2021/07/30 10:41:12;;;;;;;12.93;3.00;;;;;;;25.67;33.79;100332.07;1776650;80;21047;-84
2021/07/30 10:44:02;;;;;;;10.58;2.40;;;;;;;25.61;33.58;100326.95;1723555;83;21258;-84
2021/07/30 10:46:29;;;;;;;21.02;3.85;;;;;;;25.50;33.59;100331.95;1775773;80;21445;-83
2021/07/30 10:48:56;;;;;;;7.87;2.95;;;;;;;25.35;33.60;100334.83;1737479;80;21074;-83
2021/07/30 10:51:27;;;;;;;9.33;2.83;;;;;;;25.28;33.67;100331.51;1776752;80;21058;-84
2021/07/30 10:54:04;;;;;;;7.70;2.87;;;;;;;25.31;33.53;100316.58;1776813;79;21063;-84
2021/07/30 10:56:38;;;;;;;14.40;2.83;;;;;;;25.31;33.40;100320.61;1775845;80;21810;-83
2021/07/30 10:59:05;;;;;;;8.93;2.62;;;;;;;25.43;33.76;100319.67;1776640;80;21062;-83
2021/07/30 11:01:40;;;;;;;11.05;3.60;;;;;;;25.57;33.61;100326.22;1776810;80;20991;-83
2021/07/30 11:04:07;;;;;;;8.10;2.67;;;;;;;25.65;33.33;100307.48;1776314;79;21078;-83
2021/07/30 11:06:45;;;;;;;13.08;2.60;;;;;;;25.76;33.71;100310.09;1776703;79;20940;-83
2021/07/30 11:09:16;;;;;;;13.75;2.62;;;;;;;25.86;33.36;100311.89;1776712;80;21773;-83
2021/07/30 11:11:58;;;;;;;10.98;3.05;;;;;;;25.88;33.32;100305.95;1752885;80;21027;-84
2021/07/30 11:14:31;;;;;;;17.55;4.05;;;;;;;25.82;33.22;100307.59;1720755;81;21003;-83
2021/07/30 11:17:01;;;;;;;21.17;3.55;;;;;;;25.77;32.70;100303.77;1776196;80;21442;-84
2021/07/30 11:19:32;;;;;;;31.82;5.70;;;;;;;25.77;32.70;100298.38;1776862;80;21015;-84
2021/07/30 11:22:01;;;;;;;30.92;5.17;;;;;;;25.82;32.95;100301.33;1785441;79;22591;-84
2021/07/30 11:24:27;;;;;;;15.10;3.50;;;;;;;25.90;32.83;100297.80;1785112;80;21540;-83
2021/07/30 11:26:54;;;;;;;13.95;3.45;;;;;;;25.96;32.60;100298.92;1785265;80;20998;-83
2021/07/30 11:29:22;;;;;;;17.17;3.55;;;;;;;26.09;32.54;100301.45;1785108;80;21058;-83